Time;durP1;ratioP1;P1;durP2;ratioP2;P2;SDS_P1;SDS_P2;PMS_P1;PMS_P2;Temp;Humidity;BMP_temperature;BMP_pressure;BME280_temperature;BME280_humidity;BME280_pressure;Samples;Min_cycle;Max_cycle;Signal;HPM_P1;HPM_P2
2021/04/17 09:18:46;;;;;;;8.80;2.70;;;10.60;98.50;;;;;;3533591;40;20038;-88
2021/04/17 09:21:35;;;;;;;9.82;2.97;;;10.50;97.50;;;;;;3534421;40;20030;-87
2021/04/17 09:24:31;;;;;;;7.35;3.05;;;10.50;97.90;;;;;;3526282;40;20046;-88
2021/04/17 09:28:14;;;;;;;7.53;2.92;;;10.50;98.00;;;;;;3513235;40;20047;-86
2021/04/17 09:34:42;;;;;;;10.27;3.03;;;10.40;96.80;;;;;;3523552;40;20046;-85
2021/04/17 09:37:17;;;;;;;7.15;2.45;;;10.50;97.60;;;;;;3534001;40;20047;-85
2021/04/17 09:44:02;;;;;;;9.00;2.60;;;10.50;96.40;;;;;;3541838;40;20038;-83
2021/04/17 09:46:31;;;;;;;7.88;3.10;;;10.60;96.60;;;;;;3525879;40;20039;-84
2021/04/17 09:49:02;;;;;;;11.90;3.33;;;10.70;96.60;;;;;;3533185;40;20047;-82
2021/04/17 09:55:08;;;;;;;8.90;2.45;;;10.80;93.80;;;;;;3492064;41;20037;-86
2021/04/17 09:57:52;;;;;;;7.82;2.22;;;10.90;92.80;;;;;;3485424;41;20048;-86
2021/04/17 10:00:26;;;;;;;5.13;2.35;;;10.90;90.50;;;;;;3500091;41;20028;-89
2021/04/17 10:03:00;;;;;;;7.22;3.95;;;11.10;90.70;;;;;;3501012;41;20045;-84
2021/04/17 10:05:32;;;;;;;6.05;2.22;;;11.10;90.30;;;;;;3494295;41;20108;-87
2021/04/17 10:08:06;;;;;;;7.93;3.03;;;11.30;89.60;;;;;;3494927;41;20092;-84
2021/04/17 10:10:45;;;;;;;8.00;2.17;;;11.50;90.20;;;;;;3490934;41;20061;-84
2021/04/17 10:13:40;;;;;;;11.05;3.05;;;11.60;87.90;;;;;;3483303;41;20048;-85
2021/04/17 10:16:14;;;;;;;10.40;2.53;;;11.60;88.50;;;;;;3493496;41;20371;-85
2021/04/17 10:19:35;;;;;;;8.20;3.38;;;11.60;87.70;;;;;;3490911;41;20053;-85
2021/04/17 10:22:20;;;;;;;8.13;3.72;;;11.70;87.80;;;;;;3489137;41;20048;-85
2021/04/17 10:24:52;;;;;;;12.52;5.35;;;11.80;86.40;;;;;;3504712;41;20037;-88
2021/04/17 10:30:50;;;;;;;11.05;2.78;;;12.00;85.00;;;;;;3551730;40;20074;-85
2021/04/17 10:33:22;;;;;;;10.05;3.30;;;12.30;84.70;;;;;;3541221;40;20035;-85
2021/04/17 10:35:56;;;;;;;7.97;3.17;;;12.30;83.40;;;;;;3544845;40;20054;-85
2021/04/17 11:06:21;;;;;;;6.68;2.33;;;10.60;87.30;;;;;;5676318;23;20823;31
2021/04/17 11:28:16;;;;;;;11.77;4.95;;;10.30;90.40;;;;;;5607008;23;20018;-84
2021/04/17 11:46:11;;;;;;;5.45;2.40;;;11.40;77.70;;;;;;4013746;23;20073;-86
2021/04/17 11:48:50;;;;;;;4.18;2.00;;;11.70;77.00;;;;;;3586745;23;20054;-89
2021/04/17 12:00:12;;;;;;;11.73;3.35;;;12.70;71.70;;;;;;1281137;23;20204;-90
2021/04/17 12:12:09;;;;;;;5.70;2.30;;;13.00;69.70;;;;;;3586558;23;20027;-90
2021/04/17 12:14:36;;;;;;;11.75;2.95;;;12.90;69.90;;;;;;3534330;40;20028;-84
2021/04/17 12:17:08;;;;;;;7.28;2.58;;;12.90;70.00;;;;;;3526301;40;20138;-89
2021/04/17 12:19:43;;;;;;;9.25;2.60;;;13.00;69.40;;;;;;3527004;40;20035;-84
2021/04/17 12:22:11;;;;;;;;;;;12.90;69.30;;;;;;3511149;40;20066;-87
2021/04/17 12:24:39;;;;;;;7.78;2.55;;;12.80;70.00;;;;;;3526347;40;19934;-85
2021/04/17 12:27:07;;;;;;;4.47;2.30;;;12.80;69.20;;;;;;3534798;40;20062;-86
2021/04/17 12:29:36;;;;;;;6.28;2.60;;;12.80;70.60;;;;;;3559105;23;20314;-83
2021/04/17 12:32:03;;;;;;;7.35;2.97;;;12.80;70.90;;;;;;3526378;40;20035;-83
2021/04/17 12:34:36;;;;;;;10.98;3.10;;;12.80;70.00;;;;;;3531284;40;20031;-85
2021/04/17 12:40:16;;;;;;;8.32;3.70;;;13.40;70.10;;;;;;3548619;40;20435;-83
2021/04/17 12:42:45;;;;;;;13.85;2.40;;;14.60;66.40;;;;;;3521669;40;20066;-82
2021/04/17 12:45:15;;;;;;;6.60;3.00;;;15.40;63.60;;;;;;3517780;40;20072;-86
2021/04/17 12:47:48;;;;;;;9.02;3.35;;;15.60;61.70;;;;;;3536482;40;20075;-87
2021/04/17 12:50:16;;;;;;;16.00;5.22;;;15.60;61.40;;;;;;3536839;40;20383;-85
2021/04/17 12:52:43;;;;;;;7.10;2.90;;;15.40;60.70;;;;;;3526759;40;20058;-85
2021/04/17 12:55:11;;;;;;;7.50;2.65;;;15.30;61.20;;;;;;3550329;40;20034;-87
2021/04/17 12:57:41;;;;;;;5.53;2.30;;;15.40;60.40;;;;;;3541255;40;20061;-87
2021/04/17 13:00:17;;;;;;;8.15;3.10;;;15.40;60.90;;;;;;3538155;40;20059;-85
2021/04/17 13:02:46;;;;;;;11.45;3.47;;;15.50;60.30;;;;;;3529701;40;20394;-88
2021/04/17 13:05:16;;;;;;;6.65;2.95;;;15.40;59.60;;;;;;3532859;40;20047;-89
2021/04/17 13:07:43;;;;;;;9.93;3.10;;;15.00;59.60;;;;;;3528554;40;20027;-87
2021/04/17 13:10:13;;;;;;;8.20;2.60;;;14.60;60.60;;;;;;3525672;40;20031;-87
2021/04/17 13:12:43;;;;;;;12.80;2.97;;;14.30;61.70;;;;;;3549820;40;20035;-85
2021/04/17 13:18:02;;;;;;;11.80;3.08;;;15.20;61.40;;;;;;3550914;40;20031;-89
2021/04/17 13:20:32;;;;;;;5.43;2.55;;;16.30;58.20;;;;;;3529799;40;20070;-88
2021/04/17 13:23:03;;;;;;;6.85;3.03;;;16.80;55.40;;;;;;3529228;40;20039;-88
2021/04/17 13:25:31;;;;;;;5.72;2.50;;;16.90;55.20;;;;;;3533169;40;20042;-86
2021/04/17 13:28:01;;;;;;;6.70;2.50;;;17.00;54.40;;;;;;3534585;40;20035;-88
2021/04/17 13:30:31;;;;;;;6.70;3.25;;;17.10;54.00;;;;;;3529263;40;20043;-88
2021/04/17 13:35:47;;;;;;;7.13;2.50;;;18.00;51.80;;;;;;3574817;23;20082;-82
2021/04/17 13:38:17;;;;;;;5.22;2.47;;;18.10;51.40;;;;;;3541138;40;20298;-86
2021/04/17 13:40:48;;;;;;;9.15;4.00;;;17.90;50.80;;;;;;3542655;40;20091;-86
2021/04/17 13:43:28;;;;;;;7.55;2.63;;;17.40;51.50;;;;;;3550263;40;20094;-84
2021/04/17 13:46:02;;;;;;;9.07;3.67;;;17.00;52.60;;;;;;3552588;40;20071;-83
2021/04/17 13:48:32;;;;;;;11.55;2.95;;;16.80;52.90;;;;;;3547422;40;20094;-81
2021/04/17 13:51:07;;;;;;;5.28;2.50;;;16.80;52.90;;;;;;3535069;40;20083;-83
2021/04/17 13:53:35;;;;;;;7.32;2.50;;;16.60;53.30;;;;;;3536734;40;20079;-82
2021/04/17 13:56:03;;;;;;;6.03;2.78;;;16.60;52.90;;;;;;3540497;40;20086;-82
2021/04/17 13:58:31;;;;;;;7.60;3.70;;;16.40;53.60;;;;;;3540261;40;20074;-81
2021/04/17 14:01:00;;;;;;;8.57;2.60;;;16.00;53.90;;;;;;3548479;40;20082;-85
2021/04/17 14:03:27;;;;;;;6.93;3.00;;;15.70;54.80;;;;;;3539005;40;20612;-83
2021/04/17 14:05:54;;;;;;;8.32;2.95;;;15.70;55.20;;;;;;3550185;40;20074;-85
2021/04/17 14:08:25;;;;;;;5.70;2.72;;;16.20;55.00;;;;;;3537964;40;20059;-88
2021/04/17 14:10:56;;;;;;;7.57;2.85;;;17.30;53.30;;;;;;3545524;40;20074;-84
2021/04/17 14:13:26;;;;;;;10.40;2.88;;;19.00;49.80;;;;;;3541416;40;20063;-84
2021/04/17 14:15:55;;;;;;;14.82;4.18;;;20.50;47.70;;;;;;3550964;40;20082;-85
2021/04/17 14:18:23;;;;;;;7.82;2.70;;;20.70;44.70;;;;;;3544453;40;20131;-87
2021/04/17 14:20:50;;;;;;;12.25;3.20;;;20.20;45.20;;;;;;3556724;40;20083;-89
2021/04/17 14:23:18;;;;;;;8.77;4.07;;;19.40;46.40;;;;;;3556050;40;20058;-84
2021/04/17 14:25:46;;;;;;;7.50;3.08;;;18.40;48.00;;;;;;3550526;40;20410;-89
2021/04/17 14:28:14;;;;;;;6.40;2.75;;;17.70;49.50;;;;;;3544021;40;20229;-86
2021/04/17 14:30:44;;;;;;;6.60;3.05;;;17.30;50.80;;;;;;3540737;40;20086;-86
2021/04/17 14:33:14;;;;;;;6.82;2.88;;;17.00;51.60;;;;;;3552218;40;20070;-89
2021/04/17 14:35:42;;;;;;;8.75;3.42;;;17.10;51.50;;;;;;3538233;40;20075;-87
2021/04/17 14:38:10;;;;;;;9.98;2.83;;;17.60;51.10;;;;;;3554087;40;20063;-86
2021/04/17 14:40:40;;;;;;;8.57;2.95;;;18.00;50.10;;;;;;3545810;40;20062;-88
2021/04/17 14:43:12;;;;;;;6.63;2.97;;;18.50;48.90;;;;;;3543665;40;20062;-88
2021/04/17 14:45:39;;;;;;;7.82;3.35;;;18.30;48.50;;;;;;3541883;40;20075;-87
2021/04/17 14:48:09;;;;;;;7.55;3.40;;;18.10;48.60;;;;;;3540253;40;20098;-88
2021/04/17 14:50:37;;;;;;;7.53;3.08;;;17.50;50.10;;;;;;3551556;40;20041;-86
2021/04/17 14:53:10;;;;;;;6.85;3.22;;;16.70;52.00;;;;;;3547386;40;20062;-88
2021/04/17 14:55:38;;;;;;;5.45;2.92;;;16.30;53.10;;;;;;3534088;40;20045;-90
2021/04/17 14:58:17;;;;;;;9.38;4.15;;;16.20;53.60;;;;;;3547231;40;20073;-89
2021/04/17 15:00:45;;;;;;;7.47;3.00;;;16.30;54.10;;;;;;3530113;40;20058;-88
2021/04/17 15:03:13;;;;;;;11.13;2.92;;;17.20;52.40;;;;;;3552698;40;20031;-88
2021/04/17 15:05:48;;;;;;;11.00;3.30;;;17.30;51.90;;;;;;3548187;40;20062;-87
2021/04/17 15:08:16;;;;;;;8.85;3.40;;;17.00;52.50;;;;;;3552221;40;20067;-87
2021/04/17 15:10:46;;;;;;;7.25;3.50;;;17.40;52.30;;;;;;3541702;40;20049;-87
2021/04/17 15:13:19;;;;;;;9.02;3.40;;;17.60;51.70;;;;;;3541038;40;20058;-87
2021/04/17 15:15:47;;;;;;;8.93;4.30;;;17.40;52.10;;;;;;3548095;40;20066;-89
2021/04/17 15:18:40;;;;;;;8.43;3.55;;;17.10;52.60;;;;;;3607482;23;20051;-91
2021/04/17 15:23:56;;;;;;;7.88;3.28;;;16.50;53.70;;;;;;3551273;40;20034;-90
2021/04/17 15:26:27;;;;;;;7.93;3.15;;;16.30;54.80;;;;;;3535177;40;20339;-89
2021/04/17 15:29:00;;;;;;;6.18;3.25;;;16.00;55.50;;;;;;3544263;40;20035;-89
2021/04/17 15:31:27;;;;;;;19.88;6.18;;;15.60;56.70;;;;;;3552961;40;20323;-89
2021/04/17 15:33:55;;;;;;;10.73;4.15;;;15.30;57.40;;;;;;3538395;40;20606;-89
2021/04/17 15:36:24;;;;;;;7.18;3.58;;;15.00;58.60;;;;;;3543197;40;20120;-88
2021/04/17 15:47:27;;;;;;;10.23;3.85;;;13.60;62.70;;;;;;3683857;23;20059;-83
2021/04/17 15:53:03;;;;;;;9.70;3.88;;;13.10;65.10;;;;;;3551561;40;20055;-88
2021/04/17 15:55:31;;;;;;;8.63;3.65;;;12.80;66.00;;;;;;3544536;40;20035;-86
2021/04/17 16:14:53;;;;;;;9.00;3.38;;;12.00;71.70;;;;;;3544300;40;20049;-83
2021/04/17 16:17:21;;;;;;;12.13;5.07;;;11.80;74.00;;;;;;3543284;40;20027;-87
2021/04/17 16:19:50;;;;;;;7.97;3.65;;;11.80;77.30;;;;;;3543045;40;20074;-86
2021/04/17 16:22:18;;;;;;;7.90;3.65;;;11.70;78.60;;;;;;3558466;40;20043;-84
2021/04/17 16:24:52;;;;;;;7.43;3.92;;;11.50;81.90;;;;;;3544220;40;20035;-87
2021/04/17 16:27:20;;;;;;;9.68;3.90;;;11.40;86.00;;;;;;3535918;40;20071;-83
2021/04/17 16:29:49;;;;;;;8.90;3.80;;;11.40;89.30;;;;;;3551676;40;20047;-88
2021/04/17 16:32:17;;;;;;;10.05;4.10;;;11.30;91.00;;;;;;3544164;40;20058;-87
2021/04/17 16:34:47;;;;;;;10.90;4.90;;;11.20;92.80;;;;;;3552562;40;20308;-86
2021/04/17 16:37:15;;;;;;;9.95;4.90;;;11.10;95.10;;;;;;3552408;40;20031;-85
2021/04/17 16:39:43;;;;;;;9.57;4.18;;;11.00;97.30;;;;;;3544016;40;20054;-86
2021/04/17 16:42:13;;;;;;;8.05;3.75;;;10.90;98.50;;;;;;3551018;40;20031;-85
2021/04/17 16:44:58;;;;;;;9.05;4.47;;;10.90;99.90;;;;;;3543409;40;20331;-84
2021/04/17 16:47:36;;;;;;;10.63;5.43;;;10.80;99.90;;;;;;3541409;40;20039;-85
2021/04/17 16:50:25;;;;;;;8.80;4.07;;;10.80;99.90;;;;;;3536908;40;20411;-85
2021/04/17 16:52:56;;;;;;;10.07;4.75;;;10.70;99.90;;;;;;3524035;40;20058;-86
2021/04/17 16:55:26;;;;;;;7.97;4.35;;;10.70;99.90;;;;;;3519631;40;20047;-85
2021/04/17 16:57:59;;;;;;;7.82;4.40;;;10.70;99.90;;;;;;3523672;40;20043;-85
2021/04/17 17:00:35;;;;;;;9.95;4.20;;;10.60;99.90;;;;;;3575207;23;20078;-87
2021/04/17 17:06:09;;;;;;;7.50;4.35;;;10.50;99.90;;;;;;3583296;23;20030;-82
2021/04/17 17:14:28;;;;;;;11.18;5.38;;;10.30;99.90;;;;;;3577034;23;20030;-85
2021/04/17 17:17:31;;;;;;;13.95;5.75;;;10.30;99.90;;;;;;1263554;23;21402;-90
2021/04/17 17:23:18;;;;;;;11.13;6.03;;;10.20;99.90;;;;;;1317176;23;21310;-90
2021/04/17 17:34:56;;;;;;;11.15;4.90;;;10.30;99.90;;;;;;3609840;23;20042;-89
2021/04/17 17:52:40;;;;;;;11.48;4.85;;;10.20;99.90;;;;;;3551463;40;20050;-83
2021/04/17 18:07:35;;;;;;;12.55;5.22;;;10.00;99.90;;;;;;3618395;23;20064;-83
2021/04/17 18:17:59;;;;;;;12.15;5.40;;;9.70;99.90;;;;;;4029932;23;19953;-84
2021/04/17 18:23:28;;;;;;;15.63;5.97;;;9.70;99.90;;;;;;4572419;23;20042;-82
2021/04/17 18:30:05;;;;;;;15.95;6.30;;;9.50;99.90;;;;;;3521661;40;20042;-86
2021/04/17 18:32:49;;;;;;;12.32;6.93;;;9.50;99.90;;;;;;3534500;40;20030;-86
2021/04/17 18:38:18;;;;;;;14.73;7.07;;;9.60;99.90;;;;;;3533288;40;20031;-84
2021/04/17 18:41:02;;;;;;;12.80;6.05;;;9.60;99.90;;;;;;3519810;40;20062;-85
2021/04/17 18:50:16;;;;;;;16.20;6.82;;;9.50;99.90;;;;;;3552190;40;20063;-85
2021/04/17 18:54:11;;;;;;;14.13;6.85;;;9.50;99.90;;;;;;3504700;41;20041;-87
2021/04/17 19:05:34;;;;;;;13.48;7.15;;;9.30;99.90;;;;;;3545343;40;20037;-83
2021/04/17 19:14:02;;;;;;;15.85;7.85;;;9.30;99.90;;;;;;3506757;40;20132;-84
2021/04/17 19:16:37;;;;;;;14.88;8.05;;;9.30;99.90;;;;;;3502566;41;20032;-84
2021/04/17 19:19:16;;;;;;;19.90;7.93;;;9.20;99.90;;;;;;3519928;41;20032;-82
2021/04/17 19:25:32;;;;;;;15.65;8.25;;;9.10;99.90;;;;;;3513087;40;20029;-83
2021/04/17 19:28:11;;;;;;;17.13;8.23;;;9.10;99.90;;;;;;3502144;41;20040;-84
2021/04/17 19:30:51;;;;;;;16.65;8.15;;;9.20;99.90;;;;;;3509153;40;20028;-84
2021/04/17 19:33:36;;;;;;;;;;;9.20;99.90;;;;;;3537677;40;20034;-85
2021/04/17 19:36:07;;;;;;;14.48;8.32;;;9.10;99.90;;;;;;3544998;40;19933;-85
2021/04/17 19:39:00;;;;;;;13.48;7.50;;;9.00;99.90;;;;;;3545343;40;20037;-84
2021/04/17 19:41:37;;;;;;;17.50;8.48;;;8.90;99.90;;;;;;3541501;40;20058;-86
2021/04/17 19:45:00;;;;;;;20.10;8.35;;;8.90;99.90;;;;;;3528224;40;20036;-85
2021/04/17 19:47:43;;;;;;;16.67;9.48;;;8.70;99.90;;;;;;3527079;40;20038;-86
2021/04/17 19:50:28;;;;;;;22.70;9.52;;;8.50;99.90;;;;;;3514515;41;20298;-87
2021/04/17 20:01:46;;;;;;;22.02;9.63;;;8.60;99.90;;;;;;3526052;40;20043;-85
2021/04/17 20:07:33;;;;;;;19.23;10.43;;;8.60;99.90;;;;;;3522097;40;20039;-84
2021/04/17 20:10:19;;;;;;;17.70;9.60;;;8.50;99.90;;;;;;3526257;40;20042;-83
2021/04/17 20:12:58;;;;;;;17.15;10.32;;;8.50;99.90;;;;;;3525502;40;20031;-84
2021/04/17 20:19:55;;;;;;;18.98;9.95;;;8.40;99.90;;;;;;3527181;40;20043;-84
2021/04/17 20:22:28;;;;;;;23.80;12.18;;;8.30;99.90;;;;;;3524472;40;20039;-82
2021/04/17 20:25:01;;;;;;;20.80;11.63;;;7.90;99.90;;;;;;3521338;40;20038;-84
2021/04/17 20:27:57;;;;;;;20.80;12.07;;;7.70;99.90;;;;;;3542428;40;20047;-84
2021/04/17 20:30:29;;;;;;;21.15;11.77;;;7.70;99.90;;;;;;3533967;40;20054;-84
2021/04/17 20:33:11;;;;;;;22.42;12.32;;;7.80;99.90;;;;;;3525970;40;20031;-83
2021/04/17 20:36:13;;;;;;;18.92;11.05;;;7.80;99.90;;;;;;3534415;40;20105;-84
2021/04/17 20:38:58;;;;;;;17.88;11.07;;;7.90;99.90;;;;;;3515966;40;20105;-87
2021/04/17 20:50:48;;;;;;;24.25;9.93;;;8.00;99.90;;;;;;3532548;40;20070;-83
2021/04/17 21:03:28;;;;;;;19.33;8.38;;;8.00;99.90;;;;;;3638315;23;20050;-85
2021/04/17 21:06:00;;;;;;;18.77;9.23;;;8.10;99.90;;;;;;3526022;40;20032;-84
2021/04/17 21:08:43;;;;;;;16.83;8.88;;;8.00;99.90;;;;;;3524762;40;20032;-84
2021/04/17 21:11:40;;;;;;;17.25;8.40;;;7.90;99.90;;;;;;3524827;40;20028;-86
2021/04/17 21:14:41;;;;;;;17.98;10.00;;;7.90;99.90;;;;;;3525301;40;20048;-87
2021/04/17 21:20:25;;;;;;;20.60;11.85;;;7.70;99.90;;;;;;4141706;23;20075;31
2021/04/17 21:23:07;;;;;;;19.60;12.43;;;7.70;99.90;;;;;;3913899;23;20062;-84
2021/04/17 21:31:49;;;;;;;21.77;11.93;;;7.70;99.90;;;;;;3541953;40;20635;-84
2021/04/17 21:37:41;;;;;;;22.13;11.05;;;7.70;99.90;;;;;;3889980;23;19972;-85
2021/04/17 21:49:27;;;;;;;22.10;8.35;;;7.90;99.90;;;;;;4902506;23;20919;31
2021/04/17 21:52:05;;;;;;;19.25;9.07;;;7.80;99.90;;;;;;3512579;41;20055;-86
2021/04/17 22:00:53;;;;;;;17.67;8.45;;;7.70;99.90;;;;;;3523583;40;20023;-84
2021/04/17 22:03:30;;;;;;;18.50;8.57;;;7.70;99.90;;;;;;3515324;40;20036;-82
2021/04/17 22:06:13;;;;;;;19.00;9.48;;;7.70;99.90;;;;;;3512642;41;20041;-89
2021/04/17 22:13:18;;;;;;;17.95;8.85;;;7.80;99.90;;;;;;3513283;41;20056;-87
2021/04/17 23:28:58;;;;;;;20.98;9.20;;;7.60;99.90;;;;;;4637993;23;20040;-86
2021/04/17 23:49:45;;;;;;;21.50;10.75;;;7.50;99.90;;;;;;6000797;23;20022;31
2021/04/17 23:58:17;;;;;;;18.73;10.63;;;7.50;99.90;;;;;;5247459;23;20046;-87
